createdAt,value
2022-10-03T00:04:38.917Z,6.87
2022-10-03T00:10:33.155Z,6.67
2022-10-03T00:16:14.527Z,7.95
2022-10-03T00:27:35.913Z,10.13
2022-10-03T00:33:21.067Z,10.00
2022-10-03T00:39:09.424Z,6.37
2022-10-03T00:45:27.542Z,9.73
2022-10-03T00:51:21.753Z,9.87
2022-10-03T00:57:07.135Z,10.37
2022-10-03T01:02:55.891Z,7.53
2022-10-03T01:08:55.258Z,5.67
2022-10-03T01:14:34.546Z,4.83
2022-10-03T01:20:29.968Z,8.53
2022-10-03T01:26:12.374Z,11.13
2022-10-03T01:31:42.631Z,5.95
2022-10-03T01:37:11.963Z,9.07
2022-10-03T01:43:12.449Z,6.10
2022-10-03T01:48:45.254Z,5.50
2022-10-03T01:54:55.557Z,5.35
2022-10-03T02:00:30.981Z,9.10
2022-10-03T02:06:24.405Z,7.23
2022-10-03T02:12:15.804Z,5.67
2022-10-03T02:18:04.295Z,5.67
2022-10-03T02:23:47.240Z,7.30
2022-10-03T02:29:44.208Z,6.87
2022-10-03T02:35:37.021Z,10.30
2022-10-03T02:41:52.422Z,7.80
2022-10-03T02:47:40.291Z,9.93
2022-10-03T02:53:27.330Z,5.53
2022-10-03T02:59:03.235Z,6.83
2022-10-03T03:05:18.783Z,7.43
2022-10-03T03:10:51.575Z,9.30
2022-10-03T03:16:53.289Z,9.03
2022-10-03T03:22:36.788Z,9.83
2022-10-03T03:28:16.630Z,6.55
2022-10-03T03:34:03.414Z,13.13
2022-10-03T03:39:47.135Z,7.97
2022-10-03T03:45:46.239Z,6.50
2022-10-03T03:51:19.308Z,7.08
2022-10-03T03:57:24.130Z,8.88
2022-10-03T04:03:06.338Z,5.08
2022-10-03T04:08:59.483Z,5.70
2022-10-03T04:14:55.472Z,7.03
2022-10-03T04:20:46.659Z,10.60
2022-10-03T04:26:15.879Z,4.97
2022-10-03T04:31:59.780Z,4.62
2022-10-03T04:37:48.500Z,8.03
2022-10-03T04:43:44.034Z,5.40
2022-10-03T04:49:20.035Z,10.05
2022-10-03T04:55:11.864Z,9.80
2022-10-03T05:00:57.141Z,2.47
2022-10-03T05:06:41.479Z,13.50
2022-10-03T05:12:21.254Z,4.30
2022-10-03T05:18:06.636Z,10.10
2022-10-03T05:23:53.671Z,7.33
2022-10-03T05:29:43.036Z,6.20
2022-10-03T05:35:45.857Z,7.83
2022-10-03T05:41:32.733Z,7.60
2022-10-03T05:47:40.444Z,2.73
2022-10-03T05:53:42.262Z,5.35
2022-10-03T05:59:31.075Z,2.67
2022-10-03T06:05:39.023Z,3.15
2022-10-03T06:11:29.330Z,4.47
2022-10-03T06:17:14.304Z,6.73
2022-10-03T06:22:50.542Z,5.97
2022-10-03T06:28:47.497Z,3.15
2022-10-03T06:34:26.037Z,1.27
2022-10-03T06:40:25.256Z,2.87
2022-10-03T06:46:08.036Z,1.32
2022-10-03T06:51:54.947Z,3.40
2022-10-03T06:57:49.629Z,3.47
2022-10-03T07:03:25.217Z,3.40
2022-10-03T07:09:44.448Z,3.57
2022-10-03T07:16:25.376Z,2.97
2022-10-03T07:21:47.672Z,6.95
2022-10-03T07:27:50.153Z,9.37
2022-10-03T07:33:36.716Z,8.83
2022-10-03T07:39:35.092Z,5.50
2022-10-03T07:45:45.510Z,7.47
2022-10-03T07:51:15.454Z,6.47
2022-10-03T07:57:01.000Z,7.67
2022-10-03T08:02:52.241Z,7.35
2022-10-03T08:08:49.807Z,5.17
2022-10-03T08:14:40.345Z,6.20
2022-10-03T08:20:40.353Z,7.10
2022-10-03T08:26:35.324Z,5.13
2022-10-03T08:32:33.815Z,6.70
2022-10-03T08:38:32.185Z,5.03
2022-10-03T08:44:08.639Z,6.40
2022-10-03T08:50:10.584Z,9.17
2022-10-03T08:55:47.163Z,5.03
2022-10-03T09:01:29.890Z,5.77
2022-10-03T09:07:22.936Z,5.37
2022-10-03T09:13:16.354Z,4.30
2022-10-03T09:18:46.268Z,3.37
2022-10-03T09:24:37.635Z,7.17
2022-10-03T09:30:37.492Z,4.37
2022-10-03T09:36:38.433Z,4.30
2022-10-03T09:42:09.109Z,4.00
2022-10-03T09:48:09.713Z,5.72
2022-10-03T09:54:11.627Z,7.73
2022-10-03T10:00:02.036Z,5.33
2022-10-03T10:05:48.033Z,8.27
2022-10-03T10:11:38.433Z,4.43
2022-10-03T10:17:30.412Z,5.93
2022-10-03T10:23:38.350Z,6.80
2022-10-03T10:29:30.146Z,4.17
2022-10-03T10:35:29.483Z,5.63
2022-10-03T10:41:38.777Z,5.47
2022-10-03T10:47:29.149Z,9.00
2022-10-03T10:53:16.435Z,6.27
2022-10-03T10:59:14.589Z,4.20
2022-10-03T11:04:50.930Z,3.97
2022-10-03T11:10:26.515Z,8.37
2022-10-03T11:16:07.198Z,5.53
2022-10-03T11:22:09.447Z,5.78
2022-10-03T11:28:18.970Z,3.07
2022-10-03T11:34:21.455Z,4.50
2022-10-03T11:40:00.057Z,5.13
2022-10-03T11:45:38.951Z,4.93
2022-10-03T11:51:11.954Z,6.53
2022-10-03T11:56:50.660Z,8.60
2022-10-03T12:02:45.225Z,3.00
2022-10-03T12:08:58.254Z,2.92
2022-10-03T12:14:45.943Z,4.13
2022-10-03T12:26:14.692Z,3.67
2022-10-03T12:31:47.196Z,2.93
2022-10-03T12:37:28.715Z,2.47
2022-10-03T12:43:11.006Z,2.87
2022-10-03T12:49:28.174Z,2.20
2022-10-03T12:55:03.550Z,5.90
2022-10-03T13:00:32.759Z,2.67
2022-10-03T13:06:14.909Z,3.97
2022-10-03T13:12:08.030Z,2.63
2022-10-03T13:17:40.627Z,5.40
2022-10-03T13:23:30.723Z,2.92
2022-10-03T13:29:23.444Z,2.90
2022-10-03T13:35:25.923Z,5.87
2022-10-03T13:40:53.224Z,2.75
2022-10-03T13:46:21.561Z,3.92
2022-10-03T13:51:53.383Z,3.10
2022-10-03T13:57:23.271Z,3.75
2022-10-03T14:03:14.665Z,4.03
2022-10-03T14:08:47.226Z,3.87
2022-10-03T14:14:41.990Z,4.55
2022-10-03T14:20:37.501Z,4.07
2022-10-03T14:26:10.174Z,3.90
2022-10-03T14:31:57.423Z,4.67
2022-10-03T14:37:48.744Z,5.80
2022-10-03T14:43:49.047Z,4.20
2022-10-03T14:49:32.911Z,3.70
2022-10-03T14:54:48.643Z,4.37
2022-10-03T15:00:13.736Z,6.27
2022-10-03T15:05:49.355Z,6.33
2022-10-03T15:11:37.534Z,4.97
2022-10-03T15:17:03.775Z,6.20
2022-10-03T15:22:47.854Z,5.00
2022-10-03T15:28:29.919Z,4.83
2022-10-03T15:33:55.141Z,5.23
2022-10-03T15:39:37.249Z,5.10
2022-10-03T15:45:05.275Z,4.67
2022-10-03T15:50:45.652Z,4.27
2022-10-03T15:56:19.793Z,4.00
2022-10-03T16:01:50.469Z,6.43
2022-10-03T16:07:51.717Z,5.27
2022-10-03T16:19:36.857Z,6.20
2022-10-03T16:25:16.362Z,7.83
2022-10-03T16:30:52.605Z,5.63
2022-10-03T16:36:19.629Z,7.47
2022-10-03T16:41:49.912Z,4.23
2022-10-03T16:47:15.755Z,3.30
2022-10-03T16:53:00.511Z,6.47
2022-10-03T16:58:27.594Z,5.27
2022-10-03T17:04:08.737Z,6.17
2022-10-03T17:09:53.850Z,5.27
2022-10-03T17:15:23.856Z,5.00
2022-10-03T17:21:00.316Z,3.97
2022-10-03T17:26:32.662Z,4.77
2022-10-03T17:32:07.796Z,4.23
2022-10-03T17:37:38.932Z,5.20
2022-10-03T17:43:14.697Z,4.53
2022-10-03T17:48:41.737Z,4.37
2022-10-03T17:54:08.636Z,6.00
2022-10-03T17:59:42.501Z,7.05
2022-10-03T18:05:19.052Z,7.80
2022-10-03T18:10:50.007Z,7.62
2022-10-03T18:16:29.267Z,10.43
2022-10-03T18:22:04.698Z,10.20
2022-10-03T18:27:53.838Z,12.28
2022-10-03T18:33:23.367Z,10.82
2022-10-03T18:38:51.886Z,19.70
2022-10-03T18:44:17.014Z,17.12
2022-10-03T18:49:44.932Z,19.97
2022-10-03T18:55:18.444Z,15.80
2022-10-03T19:00:55.185Z,14.73
2022-10-03T19:06:22.285Z,17.20
2022-10-03T19:12:00.825Z,11.00
2022-10-03T19:18:21.398Z,11.83
2022-10-03T19:23:47.676Z,15.17
2022-10-03T19:29:15.129Z,15.67
2022-10-03T19:34:57.728Z,16.73
2022-10-03T19:40:40.325Z,14.53
2022-10-03T19:46:13.382Z,15.87
2022-10-03T19:51:38.836Z,11.57
2022-10-03T19:57:01.558Z,14.40
2022-10-03T20:02:31.768Z,14.55
2022-10-03T20:08:07.912Z,13.58
2022-10-03T20:13:30.507Z,12.53
2022-10-03T20:18:55.362Z,12.98
2022-10-03T20:24:37.523Z,18.27
2022-10-03T20:30:40.352Z,10.80
2022-10-03T20:36:34.265Z,10.68
2022-10-03T20:42:15.778Z,12.73
2022-10-03T20:48:07.207Z,12.17
2022-10-03T20:53:38.799Z,12.40
2022-10-03T20:59:04.214Z,12.93
2022-10-03T21:04:41.089Z,11.38
2022-10-03T21:10:22.816Z,9.75
2022-10-03T21:15:56.697Z,18.17
2022-10-03T21:21:37.397Z,15.20
2022-10-03T21:27:21.323Z,10.47
2022-10-03T21:33:07.512Z,12.33
2022-10-03T21:38:42.774Z,9.88
2022-10-03T21:44:24.815Z,9.13
2022-10-03T21:50:15.015Z,12.98
2022-10-03T21:55:52.225Z,10.13
2022-10-03T22:01:40.805Z,11.20
2022-10-03T22:07:35.418Z,11.03
2022-10-03T22:13:14.938Z,15.70
2022-10-03T22:18:42.205Z,13.37
2022-10-03T22:24:09.259Z,15.50
2022-10-03T22:30:04.725Z,11.13
2022-10-03T22:35:37.714Z,14.90
2022-10-03T22:41:00.965Z,13.03
2022-10-03T22:46:28.009Z,12.70
2022-10-03T22:51:51.913Z,15.20
2022-10-03T22:57:17.956Z,15.20
2022-10-03T23:02:51.049Z,16.43
2022-10-03T23:08:30.079Z,12.40
2022-10-03T23:14:01.851Z,13.50
2022-10-03T23:25:26.811Z,13.87
2022-10-03T23:30:58.354Z,13.17
2022-10-03T23:36:28.115Z,13.70
2022-10-03T23:42:03.128Z,15.30
2022-10-03T23:47:29.459Z,12.70
2022-10-03T23:53:06.945Z,9.73
2022-10-03T23:58:44.511Z,3.73
